Time;durP1;ratioP1;P1;durP2;ratioP2;P2;SDS_P1;SDS_P2;PMS_P1;PMS_P2;Temp;Humidity;BMP_temperature;BMP_pressure;BME280_temperature;BME280_humidity;BME280_pressure;Samples;Min_cycle;Max_cycle;Signal;HPM_P1;HPM_P2
2021/04/23 00:01:34;;;;;;;7.65;5.18;;;;;;;;;;5016791;28;20491;-78
2021/04/23 00:04:01;;;;;;;8.40;4.60;;;;;;;;;;5016555;28;20698;-78
2021/04/23 00:06:28;;;;;;;8.88;5.10;;;;;;;;;;5012064;28;20037;-78
2021/04/23 00:08:56;;;;;;;9.25;5.32;;;;;;;;;;5016233;28;20029;-79
2021/04/23 00:11:33;;;;;;;5.85;4.35;;;;;;;;;;5016481;28;20072;-78
2021/04/23 00:13:59;;;;;;;6.68;4.22;;;;;;;;;;5016840;28;20034;-78
2021/04/23 00:16:25;;;;;;;7.20;4.53;;;;;;;;;;5016577;28;20151;-79
2021/04/23 00:18:51;;;;;;;7.25;4.78;;;;;;;;;;4997339;28;20113;-79
2021/04/23 00:21:20;;;;;;;7.10;4.15;;;;;;;;;;5013898;28;20479;-79
2021/04/23 00:23:46;;;;;;;7.22;4.88;;;;;;;;;;5016142;28;20025;-79
2021/04/23 00:26:12;;;;;;;6.80;4.63;;;;;;;;;;5016594;28;20030;-79
2021/04/23 00:28:38;;;;;;;6.55;4.65;;;;;;;;;;5018514;28;20072;-79
2021/04/23 00:31:05;;;;;;;7.55;4.60;;;;;;;;;;5029863;28;20029;-79
2021/04/23 00:33:31;;;;;;;7.78;4.70;;;;;;;;;;5015823;28;20377;-79
2021/04/23 00:35:57;;;;;;;6.78;4.90;;;;;;;;;;5019413;28;20069;-79
2021/04/23 00:38:25;;;;;;;7.18;5.00;;;;;;;;;;5019976;28;20026;-79
2021/04/23 00:41:01;;;;;;;5.43;3.95;;;;;;;;;;5019608;28;20080;-78
2021/04/23 00:43:29;;;;;;;5.75;4.05;;;;;;;;;;5021091;28;20069;-77
2021/04/23 00:45:55;;;;;;;5.38;3.85;;;;;;;;;;5021028;28;20030;-79
2021/04/23 00:48:22;;;;;;;5.32;3.80;;;;;;;;;;5034876;28;20029;-79
2021/04/23 00:50:52;;;;;;;7.47;4.18;;;;;;;;;;5019377;28;20029;-79
2021/04/23 00:53:21;;;;;;;5.13;3.58;;;;;;;;;;5024618;28;20528;-79
2021/04/23 00:55:47;;;;;;;;;;;;;;;;;;5024402;28;20037;-79
2021/04/23 00:58:14;;;;;;;5.63;3.90;;;;;;;;;;5020094;28;19971;-78
2021/04/23 01:00:44;;;;;;;6.20;4.32;;;;;;;;;;5016940;28;20029;-78
2021/04/23 01:03:12;;;;;;;5.60;4.22;;;;;;;;;;5017528;28;20030;-78
2021/04/23 01:05:38;;;;;;;7.63;4.47;;;;;;;;;;5019708;28;20022;-78
2021/04/23 01:08:05;;;;;;;5.05;3.65;;;;;;;;;;5021786;28;20112;-79
2021/04/23 01:10:31;;;;;;;7.03;4.00;;;;;;;;;;5019240;28;20033;-79
2021/04/23 01:12:58;;;;;;;4.93;3.70;;;;;;;;;;5019081;28;20033;-79
2021/04/23 01:15:24;;;;;;;5.25;3.50;;;;;;;;;;5015803;28;20108;-78
2021/04/23 01:17:50;;;;;;;5.88;3.60;;;;;;;;;;5018437;28;20045;-78
2021/04/23 01:20:16;;;;;;;5.35;3.50;;;;;;;;;;5019332;28;20112;-78
2021/04/23 01:22:42;;;;;;;4.90;3.53;;;;;;;;;;5019390;28;20053;-78
2021/04/23 01:25:09;;;;;;;4.82;3.83;;;;;;;;;;5019004;28;20087;-78
2021/04/23 01:27:36;;;;;;;5.00;3.80;;;;;;;;;;5015763;28;20350;-79
2021/04/23 01:30:05;;;;;;;6.05;4.13;;;;;;;;;;5017220;28;20022;-79
2021/04/23 01:32:31;;;;;;;8.55;3.70;;;;;;;;;;5018263;28;20483;-78
2021/04/23 01:34:57;;;;;;;5.15;3.88;;;;;;;;;;5018833;28;20038;-79
2021/04/23 01:37:23;;;;;;;5.55;3.95;;;;;;;;;;5019224;28;20056;-78
2021/04/23 01:39:51;;;;;;;5.43;3.65;;;;;;;;;;5016891;28;20036;-79
2021/04/23 01:42:17;;;;;;;5.88;4.22;;;;;;;;;;5015575;28;20045;-78
2021/04/23 01:44:43;;;;;;;6.85;4.07;;;;;;;;;;5028757;28;20383;-78
2021/04/23 01:47:09;;;;;;;6.22;3.92;;;;;;;;;;5027320;28;20025;-78
2021/04/23 01:49:36;;;;;;;5.28;3.72;;;;;;;;;;5025794;28;20375;-78
2021/04/23 01:52:07;;;;;;;5.82;3.80;;;;;;;;;;5012845;28;20074;-78
2021/04/23 01:54:34;;;;;;;4.47;3.50;;;;;;;;;;5014633;28;20025;-78
2021/04/23 01:57:00;;;;;;;5.10;3.53;;;;;;;;;;5018410;28;20390;-78
2021/04/23 01:59:26;;;;;;;4.78;3.15;;;;;;;;;;5027270;28;20021;-78
2021/04/23 02:01:52;;;;;;;4.32;3.13;;;;;;;;;;5023831;28;20486;-78
2021/04/23 02:04:19;;;;;;;5.22;3.42;;;;;;;;;;5026273;28;20465;-78
2021/04/23 02:06:46;;;;;;;5.43;3.70;;;;;;;;;;5036388;28;20109;-78
2021/04/23 02:09:12;;;;;;;6.65;3.83;;;;;;;;;;5022108;28;20026;-77
2021/04/23 02:11:40;;;;;;;6.22;3.58;;;;;;;;;;5030992;28;20037;-78
2021/04/23 02:14:06;;;;;;;5.55;3.80;;;;;;;;;;5026381;28;20474;-78
2021/04/23 02:16:32;;;;;;;5.57;4.05;;;;;;;;;;5025822;28;20030;-78
2021/04/23 02:18:59;;;;;;;5.70;3.60;;;;;;;;;;5017349;28;20041;-81
2021/04/23 02:21:25;;;;;;;5.28;3.10;;;;;;;;;;5014870;28;20029;-79
2021/04/23 02:23:51;;;;;;;5.35;3.50;;;;;;;;;;5028576;28;20033;-80
2021/04/23 02:26:17;;;;;;;6.28;4.03;;;;;;;;;;5016316;28;20044;-78
2021/04/23 02:28:44;;;;;;;5.75;3.80;;;;;;;;;;5018504;28;20037;-80
2021/04/23 02:31:12;;;;;;;4.57;3.10;;;;;;;;;;5018137;28;20040;-78
2021/04/23 02:33:39;;;;;;;4.90;3.20;;;;;;;;;;5014746;28;20026;-79
2021/04/23 02:36:05;;;;;;;4.47;3.47;;;;;;;;;;5015183;28;20022;-80
2021/04/23 02:38:31;;;;;;;5.05;3.33;;;;;;;;;;5017996;28;20482;-79
2021/04/23 02:40:58;;;;;;;6.38;3.75;;;;;;;;;;5018008;28;20548;-79
2021/04/23 02:43:26;;;;;;;4.78;3.47;;;;;;;;;;5020341;28;20025;-79
2021/04/23 02:45:53;;;;;;;5.00;3.30;;;;;;;;;;5031023;28;20033;-79
2021/04/23 02:48:20;;;;;;;4.72;3.50;;;;;;;;;;5014968;28;20022;-77
2021/04/23 02:50:48;;;;;;;3.92;3.05;;;;;;;;;;5017128;28;20088;-77
2021/04/23 02:53:15;;;;;;;4.40;3.28;;;;;;;;;;5016906;28;20034;-77
2021/04/23 02:55:41;;;;;;;4.70;3.38;;;;;;;;;;5020507;28;20432;-76
2021/04/23 02:58:09;;;;;;;5.60;3.20;;;;;;;;;;5028571;28;20113;-79
2021/04/23 03:00:37;;;;;;;5.22;3.25;;;;;;;;;;5028957;28;20033;-78
2021/04/23 03:03:03;;;;;;;4.85;3.63;;;;;;;;;;5015402;28;20033;-79
2021/04/23 03:05:30;;;;;;;4.03;3.33;;;;;;;;;;5025868;28;20025;-79
2021/04/23 03:07:58;;;;;;;5.28;3.40;;;;;;;;;;5021606;28;20113;-78
2021/04/23 03:10:25;;;;;;;4.78;3.40;;;;;;;;;;5017660;28;20026;-78
2021/04/23 03:12:54;;;;;;;4.73;3.53;;;;;;;;;;5016099;28;20040;-78
2021/04/23 03:15:22;;;;;;;5.35;3.13;;;;;;;;;;5014374;28;20037;-78
2021/04/23 03:17:48;;;;;;;5.53;3.40;;;;;;;;;;5015952;28;20038;-78
2021/04/23 03:20:18;;;;;;;5.03;3.40;;;;;;;;;;5016945;28;20026;-78
2021/04/23 03:22:44;;;;;;;4.57;3.30;;;;;;;;;;5017275;28;20030;-78
2021/04/23 03:25:11;;;;;;;5.20;3.47;;;;;;;;;;5017529;28;20029;-78
2021/04/23 03:27:37;;;;;;;4.97;3.20;;;;;;;;;;5014203;28;20026;-79
2021/04/23 03:30:05;;;;;;;5.45;3.80;;;;;;;;;;5015014;28;20044;-78
2021/04/23 03:32:30;;;;;;;4.95;3.55;;;;;;;;;;5015827;28;20533;-78
2021/04/23 03:34:56;;;;;;;6.32;3.80;;;;;;;;;;5016600;28;20033;-79
2021/04/23 03:37:22;;;;;;;5.22;3.60;;;;;;;;;;5017121;28;21986;-78
2021/04/23 03:39:48;;;;;;;5.43;3.90;;;;;;;;;;5015332;28;20026;-78
2021/04/23 03:42:14;;;;;;;5.90;3.47;;;;;;;;;;5011922;28;20128;-78
2021/04/23 03:44:40;;;;;;;6.70;3.65;;;;;;;;;;5017257;28;20034;-78
2021/04/23 03:47:06;;;;;;;4.80;3.40;;;;;;;;;;5023096;28;20033;-78
2021/04/23 03:49:32;;;;;;;4.85;3.50;;;;;;;;;;5026515;28;20021;-78
2021/04/23 03:51:58;;;;;;;4.78;3.40;;;;;;;;;;5023150;28;20034;-78
2021/04/23 03:54:24;;;;;;;5.10;3.45;;;;;;;;;;5028427;28;20029;-78
2021/04/23 03:56:50;;;;;;;5.63;3.70;;;;;;;;;;5020312;28;20386;-80
2021/04/23 03:59:17;;;;;;;6.35;3.97;;;;;;;;;;5025563;28;20082;-79
2021/04/23 04:01:43;;;;;;;5.43;3.70;;;;;;;;;;5022731;28;20045;-78
2021/04/23 04:04:09;;;;;;;4.65;3.53;;;;;;;;;;5017863;28;20025;-78
2021/04/23 04:06:35;;;;;;;5.43;3.40;;;;;;;;;;5017082;28;20037;-78
2021/04/23 04:09:01;;;;;;;5.68;3.15;;;;;;;;;;5018840;28;20430;-78
2021/04/23 04:11:27;;;;;;;5.78;3.58;;;;;;;;;;5020513;28;20049;-78
2021/04/23 04:13:53;;;;;;;5.03;3.50;;;;;;;;;;5020749;28;20537;-79
2021/04/23 04:16:19;;;;;;;5.05;3.50;;;;;;;;;;5020849;28;20053;-78
2021/04/23 04:18:45;;;;;;;4.75;3.10;;;;;;;;;;5031542;28;20050;-78
2021/04/23 04:21:11;;;;;;;5.18;3.53;;;;;;;;;;5017300;28;20034;-78
2021/04/23 04:23:37;;;;;;;5.82;3.35;;;;;;;;;;5026966;28;20021;-78
2021/04/23 04:26:03;;;;;;;4.05;3.25;;;;;;;;;;5028011;28;20152;-78
2021/04/23 04:28:30;;;;;;;4.32;3.22;;;;;;;;;;5028336;28;20423;-78
2021/04/23 04:30:57;;;;;;;4.80;3.20;;;;;;;;;;5019904;28;20040;-77
2021/04/23 04:33:23;;;;;;;5.47;3.20;;;;;;;;;;5016091;28;20038;-78
2021/04/23 04:35:49;;;;;;;6.28;3.20;;;;;;;;;;5019332;28;20049;-78
2021/04/23 04:38:15;;;;;;;5.13;3.35;;;;;;;;;;5019956;28;20026;-78
2021/04/23 04:40:44;;;;;;;6.18;3.40;;;;;;;;;;5020255;28;20036;-78
2021/04/23 04:43:10;;;;;;;5.75;3.30;;;;;;;;;;5019648;28;20022;-80
2021/04/23 04:45:37;;;;;;;6.03;3.25;;;;;;;;;;5031343;28;20116;-77
2021/04/23 04:48:05;;;;;;;5.57;3.40;;;;;;;;;;5024753;28;20021;-78
2021/04/23 04:50:35;;;;;;;4.78;2.83;;;;;;;;;;5025449;28;20033;-78
2021/04/23 04:53:02;;;;;;;4.28;3.17;;;;;;;;;;5024639;28;20034;-78
2021/04/23 04:55:30;;;;;;;5.32;3.70;;;;;;;;;;5027545;28;20474;-79
2021/04/23 04:57:57;;;;;;;7.93;5.03;;;;;;;;;;5031162;28;20021;-79
2021/04/23 05:00:24;;;;;;;6.15;4.72;;;;;;;;;;5024940;28;20083;-81
2021/04/23 05:02:50;;;;;;;4.47;3.67;;;;;;;;;;5022439;28;20034;-79
2021/04/23 05:05:16;;;;;;;4.30;3.35;;;;;;;;;;5019688;28;20152;-78
2021/04/23 05:07:43;;;;;;;4.63;3.05;;;;;;;;;;5019481;28;20076;-78
2021/04/23 05:10:09;;;;;;;4.78;3.03;;;;;;;;;;5019589;28;20053;-79
2021/04/23 05:12:35;;;;;;;4.20;3.08;;;;;;;;;;5015012;28;20055;-79
2021/04/23 05:15:02;;;;;;;5.07;3.13;;;;;;;;;;5018713;28;20033;-78
2021/04/23 05:17:28;;;;;;;5.78;3.67;;;;;;;;;;5018784;28;20029;-79
2021/04/23 05:19:55;;;;;;;6.22;4.05;;;;;;;;;;5019866;28;20033;-78
2021/04/23 05:22:21;;;;;;;7.22;4.70;;;;;;;;;;5018279;28;20026;-79
2021/04/23 05:24:47;;;;;;;6.63;4.50;;;;;;;;;;5030678;28;20064;-79
2021/04/23 05:27:13;;;;;;;6.30;4.22;;;;;;;;;;5016982;28;20026;-79
2021/04/23 05:29:39;;;;;;;7.18;4.03;;;;;;;;;;5018572;28;20502;-76
2021/04/23 05:32:05;;;;;;;4.95;3.25;;;;;;;;;;5018472;28;20038;-77
2021/04/23 05:34:32;;;;;;;3.95;2.97;;;;;;;;;;5018866;28;20384;-79
2021/04/23 05:36:58;;;;;;;5.05;3.47;;;;;;;;;;5018157;28;20030;-79
2021/04/23 05:39:25;;;;;;;4.75;3.20;;;;;;;;;;5015843;28;20021;-78
2021/04/23 05:41:51;;;;;;;5.47;3.50;;;;;;;;;;5029504;28;20025;-78
2021/04/23 05:44:17;;;;;;;5.38;3.40;;;;;;;;;;5019636;28;20033;-78
2021/04/23 05:46:44;;;;;;;5.30;3.60;;;;;;;;;;5020894;28;20371;-78
2021/04/23 05:49:10;;;;;;;6.97;3.25;;;;;;;;;;5027322;28;20056;-78
2021/04/23 05:51:36;;;;;;;6.75;3.45;;;;;;;;;;5022929;28;20037;-78
2021/04/23 05:54:02;;;;;;;5.60;4.00;;;;;;;;;;5025086;28;20076;-78
2021/04/23 05:56:28;;;;;;;9.00;4.72;;;;;;;;;;5018644;28;20026;-78
2021/04/23 05:58:54;;;;;;;6.82;4.38;;;;;;;;;;5018834;28;20113;-78
2021/04/23 06:01:21;;;;;;;5.32;3.92;;;;;;;;;;5022093;28;20435;-79
2021/04/23 06:03:47;;;;;;;6.32;3.30;;;;;;;;;;5022418;28;20041;-78
2021/04/23 06:06:13;;;;;;;3.90;3.03;;;;;;;;;;5015289;28;20025;-79
2021/04/23 06:08:40;;;;;;;3.78;2.60;;;;;;;;;;5016571;28;20374;-78
2021/04/23 06:11:13;;;;;;;4.32;2.65;;;;;;;;;;5017971;28;20084;-78
2021/04/23 06:13:39;;;;;;;2.88;2.15;;;;;;;;;;5017991;28;20483;-79
2021/04/23 06:16:05;;;;;;;3.63;2.30;;;;;;;;;;5015335;28;20037;-78
2021/04/23 06:18:31;;;;;;;6.18;2.60;;;;;;;;;;5029354;28;20113;-78
2021/04/23 06:20:57;;;;;;;7.03;5.03;;;;;;;;;;5028798;28;20025;-78
2021/04/23 06:23:23;;;;;;;8.80;5.30;;;;;;;;;;5026804;28;20111;-79
2021/04/23 06:25:49;;;;;;;9.77;5.50;;;;;;;;;;5023634;28;20370;-78
2021/04/23 06:28:15;;;;;;;12.30;8.18;;;;;;;;;;5026197;28;20020;-78
2021/04/23 06:30:41;;;;;;;10.20;5.40;;;;;;;;;;5015069;28;20428;-77
2021/04/23 06:33:15;;;;;;;3.90;2.50;;;;;;;;;;5015036;28;20053;-78
2021/04/23 06:35:41;;;;;;;3.90;2.45;;;;;;;;;;5017384;28;20439;-78
2021/04/23 06:38:07;;;;;;;3.25;2.03;;;;;;;;;;5017335;28;20061;-79
2021/04/23 06:40:33;;;;;;;3.47;2.45;;;;;;;;;;5017825;28;20040;-79
2021/04/23 06:42:59;;;;;;;6.00;2.20;;;;;;;;;;5016639;28;20493;-79
2021/04/23 06:45:25;;;;;;;3.25;1.98;;;;;;;;;;5014045;28;20037;-78
2021/04/23 06:47:52;;;;;;;3.15;2.50;;;;;;;;;;5017292;28;20029;-80
2021/04/23 06:50:21;;;;;;;6.20;3.28;;;;;;;;;;5021828;28;20021;-78
2021/04/23 06:52:47;;;;;;;7.38;2.80;;;;;;;;;;5022904;28;20073;-80
2021/04/23 06:55:14;;;;;;;3.55;2.58;;;;;;;;;;5017386;28;20029;-79
2021/04/23 06:57:40;;;;;;;5.35;3.13;;;;;;;;;;5012559;28;20112;-80
2021/04/23 07:00:08;;;;;;;4.47;2.95;;;;;;;;;;5007290;28;20128;-77
2021/04/23 07:02:34;;;;;;;4.53;2.90;;;;;;;;;;5030563;28;20474;-78
2021/04/23 07:04:59;;;;;;;3.90;2.35;;;;;;;;;;5031240;28;20029;-78
2021/04/23 07:07:25;;;;;;;2.92;2.15;;;;;;;;;;5035642;28;20064;-79
2021/04/23 07:09:51;;;;;;;3.75;2.17;;;;;;;;;;5027061;28;20025;-78
2021/04/23 07:12:17;;;;;;;2.25;2.03;;;;;;;;;;5013533;28;20045;-77
2021/04/23 07:14:43;;;;;;;2.70;2.10;;;;;;;;;;5015212;28;20105;-79
2021/04/23 07:17:11;;;;;;;3.30;1.75;;;;;;;;;;5026342;28;20025;-78
2021/04/23 07:19:37;;;;;;;2.80;1.73;;;;;;;;;;5025002;28;20057;-80
2021/04/23 07:22:04;;;;;;;4.25;1.88;;;;;;;;;;5016485;28;20021;-79
2021/04/23 07:24:30;;;;;;;2.60;1.80;;;;;;;;;;5012667;28;20100;-78
2021/04/23 07:26:56;;;;;;;7.72;2.13;;;;;;;;;;5026708;28;20029;-80
2021/04/23 07:29:23;;;;;;;7.97;1.95;;;;;;;;;;5025713;28;20037;-78
2021/04/23 07:31:48;;;;;;;2.95;1.95;;;;;;;;;;5021701;28;20038;-78
2021/04/23 07:34:15;;;;;;;2.17;1.83;;;;;;;;;;5013992;28;20471;-78
2021/04/23 07:36:41;;;;;;;2.75;1.80;;;;;;;;;;5027374;28;20034;-77
2021/04/23 07:39:10;;;;;;;2.30;1.70;;;;;;;;;;5023779;28;20024;-79
2021/04/23 07:41:36;;;;;;;2.78;1.77;;;;;;;;;;5027344;28;20500;-78
2021/04/23 07:44:02;;;;;;;1.70;1.60;;;;;;;;;;5020194;28;20030;-77
2021/04/23 07:46:28;;;;;;;2.75;1.80;;;;;;;;;;5014550;28;20026;-78
2021/04/23 07:48:54;;;;;;;3.90;1.83;;;;;;;;;;5015682;28;20032;-78
2021/04/23 07:51:20;;;;;;;3.30;2.00;;;;;;;;;;5028220;28;20056;-78
2021/04/23 07:53:46;;;;;;;1.83;1.50;;;;;;;;;;5026809;28;20108;-79
2021/04/23 07:56:12;;;;;;;2.78;1.60;;;;;;;;;;5019850;28;20034;-79
2021/04/23 07:58:38;;;;;;;3.15;2.15;;;;;;;;;;5023935;28;20025;-79
2021/04/23 08:01:04;;;;;;;1.70;1.52;;;;;;;;;;5038083;28;20026;-79
2021/04/23 08:03:31;;;;;;;2.00;1.80;;;;;;;;;;5028570;28;20034;-78
2021/04/23 08:05:57;;;;;;;2.55;1.90;;;;;;;;;;5027055;28;20112;-79
2021/04/23 08:08:23;;;;;;;2.30;1.80;;;;;;;;;;5017308;28;20022;-78
2021/04/23 08:10:49;;;;;;;2.03;1.52;;;;;;;;;;5020926;28;20033;-78
2021/04/23 08:13:15;;;;;;;2.25;1.70;;;;;;;;;;5015962;28;20029;-78
2021/04/23 08:15:41;;;;;;;2.10;1.73;;;;;;;;;;5013593;28;20029;-79
2021/04/23 08:18:07;;;;;;;2.90;1.80;;;;;;;;;;5030635;28;20042;-79
2021/04/23 08:20:34;;;;;;;2.33;1.58;;;;;;;;;;5017293;28;20489;-79
2021/04/23 08:23:00;;;;;;;3.07;1.93;;;;;;;;;;5016424;28;20112;-78
2021/04/23 08:25:26;;;;;;;2.35;1.75;;;;;;;;;;5015564;28;20354;-79
2021/04/23 08:27:52;;;;;;;3.97;1.85;;;;;;;;;;5013679;28;20025;-78
2021/04/23 08:30:20;;;;;;;3.08;1.95;;;;;;;;;;5028474;28;20347;-78
2021/04/23 08:32:46;;;;;;;2.65;1.95;;;;;;;;;;5017110;28;20117;-79
2021/04/23 08:35:12;;;;;;;4.15;2.20;;;;;;;;;;5017576;28;20022;-79
2021/04/23 08:37:38;;;;;;;2.40;1.85;;;;;;;;;;5015252;28;20076;-78
2021/04/23 08:40:05;;;;;;;3.70;2.22;;;;;;;;;;5031621;28;20045;-79
2021/04/23 08:42:32;;;;;;;2.47;1.77;;;;;;;;;;5012010;28;20033;-79
2021/04/23 08:44:58;;;;;;;2.20;2.00;;;;;;;;;;5026332;28;20041;-80
2021/04/23 08:47:24;;;;;;;3.63;2.10;;;;;;;;;;5016315;28;20279;-79
2021/04/23 08:49:50;;;;;;;3.47;2.13;;;;;;;;;;5015185;28;20482;-78
2021/04/23 08:52:16;;;;;;;3.42;2.03;;;;;;;;;;5018260;28;20033;-79
2021/04/23 08:54:44;;;;;;;6.18;2.65;;;;;;;;;;5038716;28;20022;-78
2021/04/23 08:57:10;;;;;;;2.95;2.10;;;;;;;;;;5016689;28;20107;-81
2021/04/23 08:59:36;;;;;;;4.03;2.45;;;;;;;;;;5027347;28;20113;-78
2021/04/23 09:02:02;;;;;;;3.40;2.35;;;;;;;;;;5031301;28;20033;-80
2021/04/23 09:04:28;;;;;;;4.00;2.70;;;;;;;;;;5035359;28;20106;-81
2021/04/23 09:07:05;;;;;;;4.10;2.67;;;;;;;;;;5018538;28;20036;-80
2021/04/23 09:09:35;;;;;;;3.70;2.53;;;;;;;;;;5019751;28;20028;-81
2021/04/23 09:12:14;;;;;;;3.30;2.45;;;;;;;;;;5030241;28;20037;-79
2021/04/23 09:14:40;;;;;;;4.05;2.70;;;;;;;;;;5019511;28;20022;-80
2021/04/23 09:17:06;;;;;;;4.88;2.70;;;;;;;;;;5023048;28;20034;-80
2021/04/23 09:19:33;;;;;;;3.78;2.80;;;;;;;;;;5022380;28;20209;-80
2021/04/23 09:22:04;;;;;;;3.90;2.63;;;;;;;;;;5017949;28;20363;-80
2021/04/23 09:24:37;;;;;;;5.93;2.80;;;;;;;;;;5014959;28;20033;-79
2021/04/23 09:27:12;;;;;;;5.20;3.55;;;;;;;;;;5029457;28;20478;-78
2021/04/23 09:29:39;;;;;;;6.32;3.40;;;;;;;;;;5028275;28;20022;-79
2021/04/23 09:32:14;;;;;;;4.60;3.35;;;;;;;;;;5021142;28;20038;-81
2021/04/23 09:34:50;;;;;;;6.32;3.70;;;;;;;;;;5021541;28;20014;-79
2021/04/23 09:37:17;;;;;;;8.13;4.20;;;;;;;;;;5027525;28;20033;-78
2021/04/23 09:39:43;;;;;;;8.60;4.90;;;;;;;;;;5028195;28;20030;-78
2021/04/23 09:42:11;;;;;;;8.75;5.25;;;;;;;;;;5019930;28;20025;-78
2021/04/23 09:44:41;;;;;;;11.15;5.55;;;;;;;;;;5014923;28;20474;-78
2021/04/23 09:47:08;;;;;;;10.32;6.70;;;;;;;;;;5020640;28;20052;-78
2021/04/23 09:49:35;;;;;;;7.72;5.72;;;;;;;;;;5022712;28;20022;-80
2021/04/23 09:52:05;;;;;;;8.70;6.20;;;;;;;;;;5023595;28;20044;-79
2021/04/23 09:54:31;;;;;;;8.27;6.00;;;;;;;;;;5028835;28;20352;-78
2021/04/23 09:56:57;;;;;;;6.85;5.00;;;;;;;;;;5025553;28;20071;-80
2021/04/23 09:59:25;;;;;;;10.23;6.20;;;;;;;;;;5023045;28;20249;-80
2021/04/23 10:01:52;;;;;;;11.07;5.47;;;;;;;;;;5022886;28;20037;-80
2021/04/23 10:04:22;;;;;;;6.53;5.17;;;;;;;;;;5018556;28;20033;-79
2021/04/23 10:06:48;;;;;;;7.18;6.03;;;;;;;;;;5015360;28;20036;-80
2021/04/23 10:09:14;;;;;;;11.55;8.80;;;;;;;;;;5031305;28;20057;-80
2021/04/23 10:11:41;;;;;;;10.13;6.53;;;;;;;;;;5018748;28;20065;-79
2021/04/23 10:14:12;;;;;;;9.35;6.97;;;;;;;;;;5026028;28;20049;-80
2021/04/23 10:16:38;;;;;;;10.35;7.85;;;;;;;;;;5025488;28;20468;-80
2021/04/23 10:19:05;;;;;;;8.65;7.03;;;;;;;;;;5018013;28;20068;-79
2021/04/23 10:21:31;;;;;;;9.07;6.25;;;;;;;;;;5013603;28;20036;-81
2021/04/23 10:23:59;;;;;;;9.40;7.13;;;;;;;;;;5028127;28;20026;-80
2021/04/23 10:26:25;;;;;;;9.13;6.80;;;;;;;;;;5016715;28;20096;-80
2021/04/23 10:28:51;;;;;;;8.30;6.50;;;;;;;;;;5018662;28;20082;-80
2021/04/23 10:31:17;;;;;;;9.77;7.43;;;;;;;;;;5026256;28;20481;-80
2021/04/23 10:33:44;;;;;;;8.40;5.28;;;;;;;;;;5015140;28;20045;-81
2021/04/23 10:36:10;;;;;;;10.02;6.53;;;;;;;;;;5014908;28;20022;-80
2021/04/23 10:38:38;;;;;;;8.40;6.40;;;;;;;;;;5025622;28;20024;-81
2021/04/23 10:41:08;;;;;;;7.90;6.07;;;;;;;;;;5016612;28;20542;-80
2021/04/23 10:43:35;;;;;;;7.40;5.32;;;;;;;;;;5017790;28;20037;-80
2021/04/23 10:46:01;;;;;;;7.45;5.05;;;;;;;;;;5017535;28;20021;-80
2021/04/23 10:48:28;;;;;;;7.97;5.05;;;;;;;;;;5030399;28;20025;-80
2021/04/23 10:50:56;;;;;;;6.50;4.63;;;;;;;;;;5021070;28;20071;-80
2021/04/23 10:53:22;;;;;;;8.77;5.35;;;;;;;;;;5024317;28;20026;-80
2021/04/23 10:55:51;;;;;;;6.78;4.07;;;;;;;;;;5027835;28;20470;-80
2021/04/23 10:58:19;;;;;;;8.13;4.15;;;;;;;;;;5014697;28;20041;-80
2021/04/23 11:00:49;;;;;;;6.70;3.80;;;;;;;;;;5028724;28;20045;-80
2021/04/23 11:03:21;;;;;;;6.68;4.47;;;;;;;;;;5014669;28;20026;-80
2021/04/23 11:05:47;;;;;;;5.85;4.10;;;;;;;;;;5016563;28;20022;-80
2021/04/23 11:08:13;;;;;;;7.80;5.00;;;;;;;;;;5018704;28;20065;-80
2021/04/23 11:10:58;;;;;;;8.13;4.80;;;;;;;;;;5025049;28;20048;-80
2021/04/23 11:13:24;;;;;;;8.18;5.60;;;;;;;;;;5017162;28;20491;-81
2021/04/23 11:16:09;;;;;;;8.05;5.28;;;;;;;;;;5015080;28;20030;-80
2021/04/23 11:18:35;;;;;;;9.48;6.32;;;;;;;;;;5017083;28;20046;-81
2021/04/23 11:21:20;;;;;;;8.48;5.95;;;;;;;;;;5015154;28;20037;-80
2021/04/23 11:24:04;;;;;;;7.07;5.20;;;;;;;;;;5016411;28;20483;-80
2021/04/23 11:26:49;;;;;;;8.25;5.70;;;;;;;;;;5018448;28;20061;-80
2021/04/23 11:29:15;;;;;;;7.07;5.22;;;;;;;;;;5025100;28;20051;-80
2021/04/23 11:31:59;;;;;;;7.35;4.57;;;;;;;;;;5022242;28;20402;-80
2021/04/23 11:34:37;;;;;;;7.25;5.03;;;;;;;;;;5016543;28;20112;-80
2021/04/23 11:37:04;;;;;;;6.70;5.30;;;;;;;;;;5015912;28;20074;-80
2021/04/23 11:39:35;;;;;;;7.03;4.57;;;;;;;;;;5022891;28;20021;-80
2021/04/23 11:42:11;;;;;;;8.07;5.05;;;;;;;;;;5021612;28;20080;-80
2021/04/23 11:44:57;;;;;;;6.40;4.50;;;;;;;;;;5026270;28;20026;-80
2021/04/23 11:47:25;;;;;;;6.95;4.40;;;;;;;;;;5025134;28;20026;-80
2021/04/23 11:50:09;;;;;;;5.72;4.10;;;;;;;;;;5022141;28;20030;-79
2021/04/23 11:52:36;;;;;;;6.18;4.60;;;;;;;;;;5015632;28;20344;-81
2021/04/23 11:55:06;;;;;;;6.45;4.50;;;;;;;;;;5037824;28;20075;-80
2021/04/23 11:57:32;;;;;;;6.07;4.88;;;;;;;;;;5013421;28;20029;-79
2021/04/23 12:00:08;;;;;;;5.82;4.72;;;;;;;;;;5026223;28;20064;-80
2021/04/23 12:02:45;;;;;;;8.05;5.30;;;;;;;;;;5025531;28;20032;-79
2021/04/23 12:05:25;;;;;;;7.30;5.18;;;;;;;;;;5018407;28;20030;-79
2021/04/23 12:07:52;;;;;;;8.23;5.28;;;;;;;;;;5016345;28;20060;-79
2021/04/23 12:10:19;;;;;;;6.32;4.78;;;;;;;;;;5022424;28;20016;-78
2021/04/23 12:12:46;;;;;;;7.43;5.25;;;;;;;;;;5013517;28;20108;-78
2021/04/23 12:15:24;;;;;;;7.20;5.13;;;;;;;;;;5013343;28;20030;-78
2021/04/23 12:17:50;;;;;;;5.90;4.93;;;;;;;;;;5017985;28;20029;-78
2021/04/23 12:20:24;;;;;;;7.20;4.90;;;;;;;;;;5017513;28;20033;-78
2021/04/23 12:22:50;;;;;;;11.95;5.95;;;;;;;;;;5015459;28;20030;-78
2021/04/23 12:25:29;;;;;;;7.43;5.05;;;;;;;;;;5016390;28;20079;-79
2021/04/23 12:27:55;;;;;;;6.95;5.43;;;;;;;;;;5016189;28;20562;-78
2021/04/23 12:30:28;;;;;;;6.78;4.95;;;;;;;;;;5031397;28;20045;-78
2021/04/23 12:32:55;;;;;;;8.85;5.22;;;;;;;;;;5018639;28;20038;-77
2021/04/23 12:35:37;;;;;;;7.93;5.50;;;;;;;;;;5019982;28;20482;-78
2021/04/23 12:38:04;;;;;;;6.55;5.20;;;;;;;;;;5023827;28;20112;-80
2021/04/23 12:40:31;;;;;;;8.35;5.25;;;;;;;;;;5027458;28;20021;-80
2021/04/23 12:42:58;;;;;;;8.07;5.28;;;;;;;;;;5018679;28;20036;-78
2021/04/23 12:45:24;;;;;;;7.78;4.63;;;;;;;;;;5016019;28;20037;-80
2021/04/23 12:47:50;;;;;;;7.07;5.07;;;;;;;;;;5022059;28;20347;-79
2021/04/23 12:50:28;;;;;;;9.38;6.03;;;;;;;;;;5020909;28;20041;-79
2021/04/23 12:52:55;;;;;;;8.65;6.05;;;;;;;;;;5019307;28;20045;-79
2021/04/23 12:55:21;;;;;;;7.75;5.18;;;;;;;;;;5035869;28;20030;-79
2021/04/23 12:57:47;;;;;;;7.40;5.25;;;;;;;;;;5016752;28;20030;-79
2021/04/23 13:00:15;;;;;;;8.30;5.75;;;;;;;;;;5031278;28;20359;-79
2021/04/23 13:02:42;;;;;;;7.68;5.13;;;;;;;;;;5018936;28;20422;-79
2021/04/23 13:05:09;;;;;;;7.05;5.35;;;;;;;;;;5026514;28;20029;-79
2021/04/23 13:07:43;;;;;;;8.23;4.97;;;;;;;;;;5025989;28;20022;-79
2021/04/23 13:10:10;;;;;;;6.35;4.93;;;;;;;;;;5025199;28;20021;-79
2021/04/23 13:12:38;;;;;;;7.15;5.13;;;;;;;;;;5014927;28;20503;-79
2021/04/23 13:15:06;;;;;;;7.00;5.15;;;;;;;;;;5016993;28;20030;-79
2021/04/23 13:17:39;;;;;;;7.78;5.38;;;;;;;;;;5019715;28;20100;-80
2021/04/23 13:20:17;;;;;;;9.00;5.60;;;;;;;;;;5021478;28;20561;-78
2021/04/23 13:22:48;;;;;;;9.25;5.80;;;;;;;;;;5018554;28;20133;-80
2021/04/23 13:25:14;;;;;;;8.90;5.45;;;;;;;;;;5017608;28;20026;-80
2021/04/23 13:27:45;;;;;;;7.28;5.03;;;;;;;;;;5029230;28;20017;-79
2021/04/23 13:30:25;;;;;;;5.88;4.65;;;;;;;;;;5030979;28;20017;-78
2021/04/23 13:32:53;;;;;;;6.20;4.50;;;;;;;;;;5018171;28;20121;-78
2021/04/23 13:35:29;;;;;;;6.93;4.97;;;;;;;;;;5018232;28;20037;-78
2021/04/23 13:37:58;;;;;;;9.73;5.38;;;;;;;;;;5021894;28;20036;-77
2021/04/23 13:40:28;;;;;;;6.45;4.68;;;;;;;;;;5027208;28;20086;-79
2021/04/23 13:43:07;;;;;;;6.18;4.75;;;;;;;;;;5016991;28;20018;-79
2021/04/23 13:45:34;;;;;;;7.35;5.60;;;;;;;;;;5019227;28;20108;-79
2021/04/23 13:47:59;;;;;;;7.50;4.85;;;;;;;;;;5020796;28;20447;-78
2021/04/23 13:50:25;;;;;;;7.13;5.20;;;;;;;;;;5018249;28;20064;-79
2021/04/23 13:52:51;;;;;;;9.00;4.90;;;;;;;;;;5021596;28;20046;-78
2021/04/23 13:55:18;;;;;;;6.72;4.45;;;;;;;;;;5023192;28;20025;-77
2021/04/23 13:58:00;;;;;;;7.05;4.68;;;;;;;;;;5014672;28;20038;-77
2021/04/23 14:00:26;;;;;;;9.48;4.60;;;;;;;;;;5029739;28;20046;-77
2021/04/23 14:02:59;;;;;;;6.30;4.15;;;;;;;;;;5017152;28;20021;-78
2021/04/23 14:05:25;;;;;;;6.13;4.50;;;;;;;;;;5018031;28;20064;-78
2021/04/23 14:07:51;;;;;;;6.00;4.25;;;;;;;;;;5014952;28;20109;-78
2021/04/23 14:10:17;;;;;;;6.13;4.35;;;;;;;;;;5017607;28;20025;-78
2021/04/23 14:12:43;;;;;;;7.78;4.60;;;;;;;;;;5014262;28;20049;-78
2021/04/23 14:15:09;;;;;;;7.88;5.30;;;;;;;;;;5015446;28;20022;-79
2021/04/23 14:17:35;;;;;;;7.68;4.72;;;;;;;;;;5017866;28;20022;-79
2021/04/23 14:20:02;;;;;;;6.30;4.85;;;;;;;;;;5017681;28;20041;-79
2021/04/23 14:22:28;;;;;;;6.85;5.13;;;;;;;;;;5017264;28;20025;-78
2021/04/23 14:24:54;;;;;;;7.40;5.30;;;;;;;;;;5018820;28;20071;-77
2021/04/23 14:27:21;;;;;;;7.47;4.32;;;;;;;;;;5013514;28;20156;-80
2021/04/23 14:29:48;;;;;;;8.20;5.45;;;;;;;;;;5015028;28;20045;-79
2021/04/23 14:32:14;;;;;;;7.57;4.85;;;;;;;;;;5017530;28;20099;-79
2021/04/23 14:34:40;;;;;;;5.72;4.40;;;;;;;;;;5016818;28;20029;-79
2021/04/23 14:37:07;;;;;;;8.05;4.40;;;;;;;;;;5016706;28;20485;-79
2021/04/23 14:39:33;;;;;;;7.93;4.35;;;;;;;;;;5013158;28;20386;-79
2021/04/23 14:41:59;;;;;;;9.65;5.35;;;;;;;;;;5016541;28;20029;-77
2021/04/23 14:44:25;;;;;;;7.43;4.80;;;;;;;;;;5025082;28;20087;-80
2021/04/23 14:46:52;;;;;;;7.60;5.63;;;;;;;;;;5018600;28;20475;-81